Time;durP1;ratioP1;P1;durP2;ratioP2;P2;SDS_P1;SDS_P2;PMS_P1;PMS_P2;Temp;Humidity;BMP_temperature;BMP_pressure;BME280_temperature;BME280_humidity;BME280_pressure;Samples;Min_cycle;Max_cycle;Signal;HPM_P1;HPM_P2
2022/11/15 00:00:17;;;;;;;101.77;42.57;;;4.40;99.90;;;;;;10254328;28;20625;-92
2022/11/15 00:05:39;;;;;;;118.80;43.57;;;4.40;99.90;;;;;;10258038;28;20269;-92
2022/11/15 00:11:01;;;;;;;101.60;42.53;;;4.50;99.90;;;;;;10250891;28;20233;-93
2022/11/15 00:16:23;;;;;;;122.50;44.53;;;4.40;99.90;;;;;;10221432;29;20238;-92
2022/11/15 00:21:44;;;;;;;121.33;45.40;;;4.40;99.90;;;;;;10216218;28;20254;-93
2022/11/15 00:27:05;;;;;;;98.10;39.27;;;4.40;99.90;;;;;;10224390;28;20250;-92
2022/11/15 00:32:32;;;;;;;118.77;42.47;;;4.40;99.90;;;;;;10234692;29;20265;-93
2022/11/15 00:37:53;;;;;;;108.80;42.53;;;4.40;99.90;;;;;;10216594;29;20233;-92
2022/11/15 00:43:14;;;;;;;99.83;40.60;;;4.40;99.90;;;;;;10219291;29;20258;-92
2022/11/15 00:48:36;;;;;;;99.57;41.47;;;4.40;99.90;;;;;;10237198;29;20695;-93
2022/11/15 00:53:57;;;;;;;119.37;42.93;;;4.30;99.90;;;;;;10250204;29;20242;-93
2022/11/15 00:59:18;;;;;;;99.03;42.03;;;4.30;99.90;;;;;;10257914;28;20679;-92
2022/11/15 01:04:39;;;;;;;106.50;41.97;;;4.30;99.90;;;;;;10259155;28;20269;-92
2022/11/15 01:10:00;;;;;;;93.37;41.67;;;4.20;99.90;;;;;;10246320;29;20245;-92
2022/11/15 01:15:21;;;;;;;119.07;42.60;;;4.20;99.90;;;;;;10246545;29;20723;-92
2022/11/15 01:20:42;;;;;;;94.23;39.57;;;4.10;99.90;;;;;;10252767;28;20256;-92
2022/11/15 01:26:06;;;;;;;106.20;38.03;;;4.10;99.90;;;;;;10251344;28;20254;-92
2022/11/15 01:31:27;;;;;;;103.20;38.53;;;4.10;99.90;;;;;;10253870;29;20269;-93
2022/11/15 01:36:48;;;;;;;105.30;41.57;;;4.10;99.90;;;;;;10256407;28;20249;-92
2022/11/15 01:42:13;;;;;;;99.23;40.93;;;4.10;99.90;;;;;;10258488;28;20214;-93
2022/11/15 01:47:38;;;;;;;92.10;38.17;;;4.00;99.90;;;;;;10256170;28;20237;-92
2022/11/15 01:52:59;;;;;;;122.90;44.07;;;4.10;99.90;;;;;;10241734;28;20223;-92
2022/11/15 01:58:20;;;;;;;108.73;42.83;;;4.00;99.90;;;;;;10255479;28;20238;-92
2022/11/15 02:04:03;;;;;;;101.60;42.13;;;4.10;99.90;;;;;;10254200;28;20261;-94
2022/11/15 02:09:24;;;;;;;89.90;40.23;;;4.00;99.90;;;;;;10244223;28;20238;-92
2022/11/15 02:14:49;;;;;;;111.63;43.97;;;4.00;99.90;;;;;;10255370;28;20245;-92
2022/11/15 02:20:38;;;;;;;100.87;40.40;;;4.00;99.90;;;;;;10261082;28;20720;-92
2022/11/15 02:26:37;;;;;;;96.03;37.47;;;3.90;99.90;;;;;;10254225;28;20262;-93
2022/11/15 02:32:03;;;;;;;107.00;41.97;;;3.90;99.90;;;;;;10253577;28;20269;-92
2022/11/15 02:37:52;;;;;;;82.87;36.90;;;3.90;99.90;;;;;;10251052;28;20209;-92
2022/11/15 02:49:04;;;;;;;105.30;39.23;;;3.90;99.90;;;;;;10249463;29;20252;-92
2022/11/15 02:54:30;;;;;;;87.57;38.07;;;3.90;99.90;;;;;;10250666;28;20241;-92
2022/11/15 03:00:05;;;;;;;84.30;36.47;;;3.90;99.90;;;;;;10251824;29;20249;-92
2022/11/15 03:05:41;;;;;;;104.30;39.80;;;3.80;99.90;;;;;;10250134;29;20409;-92
2022/11/15 03:11:21;;;;;;;111.40;39.93;;;3.80;99.90;;;;;;10238645;28;20238;-91
2022/11/15 03:16:57;;;;;;;97.07;41.20;;;3.80;99.90;;;;;;10242389;29;20215;-92
2022/11/15 03:22:22;;;;;;;81.83;38.67;;;3.80;99.90;;;;;;10259768;28;20233;-92
2022/11/15 03:27:49;;;;;;;92.87;37.40;;;3.80;99.90;;;;;;10234552;29;20242;-92
2022/11/15 03:33:11;;;;;;;88.13;38.47;;;3.70;99.90;;;;;;10219931;28;20257;-92
2022/11/15 03:38:33;;;;;;;95.40;40.50;;;3.70;99.90;;;;;;10244732;29;20241;-92
2022/11/15 03:44:20;;;;;;;119.57;45.63;;;3.70;99.90;;;;;;10256196;28;20306;-92
2022/11/15 03:49:50;;;;;;;103.93;42.53;;;3.80;99.90;;;;;;10217156;29;20955;-92
2022/11/15 03:55:15;;;;;;;82.77;38.70;;;3.80;99.90;;;;;;10249787;29;20241;-92
2022/11/15 04:00:36;;;;;;;84.53;38.17;;;3.90;99.90;;;;;;10251431;28;20237;-92
2022/11/15 04:05:57;;;;;;;102.43;38.87;;;3.80;99.90;;;;;;10246867;29;21037;-92
2022/11/15 04:11:18;;;;;;;106.27;41.47;;;3.90;99.90;;;;;;10255529;28;20244;-92
2022/11/15 04:16:39;;;;;;;98.47;42.50;;;3.90;99.90;;;;;;10254283;28;20697;-92
2022/11/15 04:27:43;;;;;;;111.33;43.83;;;3.90;99.90;;;;;;10259090;28;20241;-92
2022/11/15 04:33:04;;;;;;;88.13;39.57;;;3.90;99.90;;;;;;10250150;28;20253;-92
2022/11/15 04:38:25;;;;;;;86.90;40.20;;;3.90;99.90;;;;;;10254429;28;20234;-92
2022/11/15 04:43:46;;;;;;;95.10;41.63;;;3.80;99.90;;;;;;10247572;29;20257;-93
2022/11/15 04:49:07;;;;;;;110.87;43.87;;;3.80;99.90;;;;;;10259117;28;20250;-92
2022/11/15 04:54:29;;;;;;;92.17;40.70;;;3.80;99.90;;;;;;10247513;29;20206;-92
2022/11/15 04:59:50;;;;;;;80.30;37.03;;;3.90;99.90;;;;;;10247245;28;20248;-92
2022/11/15 05:05:10;;;;;;;92.00;36.40;;;3.80;99.90;;;;;;10241490;28;20283;-93
2022/11/15 05:10:32;;;;;;;98.73;36.10;;;3.90;99.90;;;;;;10221629;29;20245;-92
2022/11/15 05:15:53;;;;;;;102.03;48.27;;;3.70;99.90;;;;;;10254957;28;20242;-92
2022/11/15 05:21:15;;;;;;;109.10;40.17;;;3.70;99.90;;;;;;10264955;28;20237;-92
2022/11/15 05:26:36;;;;;;;85.63;39.93;;;3.70;99.90;;;;;;10262163;28;20229;-92
2022/11/15 05:31:57;;;;;;;83.33;36.40;;;3.60;99.90;;;;;;10251384;28;20217;-92
2022/11/15 05:37:18;;;;;;;72.10;37.27;;;3.70;99.90;;;;;;10216049;29;20625;-92
2022/11/15 05:42:39;;;;;;;84.20;36.53;;;3.60;99.90;;;;;;10239509;29;20245;-91
2022/11/15 05:48:04;;;;;;;79.37;35.60;;;3.70;99.90;;;;;;10252525;28;20213;-92
2022/11/15 05:53:26;;;;;;;81.33;33.67;;;3.70;99.90;;;;;;10263586;28;20569;-92
2022/11/15 05:58:47;;;;;;;93.67;37.77;;;3.60;99.90;;;;;;10266736;28;20213;-92
2022/11/15 06:04:11;;;;;;;81.67;35.97;;;3.60;99.90;;;;;;10264191;28;20226;-91
2022/11/15 06:09:32;;;;;;;88.97;37.03;;;3.70;99.90;;;;;;10260743;28;20663;-91
2022/11/15 06:14:53;;;;;;;96.40;36.90;;;3.70;99.90;;;;;;10260406;28;20207;-92
2022/11/15 06:20:14;;;;;;;82.67;37.13;;;3.60;99.90;;;;;;10264358;28;20217;-92
2022/11/15 06:25:35;;;;;;;75.27;33.67;;;3.60;99.90;;;;;;10255005;29;20217;-90
2022/11/15 06:31:01;;;;;;;91.23;38.23;;;3.60;99.90;;;;;;10261683;28;20574;-91
2022/11/15 06:36:23;;;;;;;82.97;38.23;;;3.60;99.90;;;;;;10264646;28;20213;-91
2022/11/15 06:41:44;;;;;;;89.17;38.17;;;3.60;99.90;;;;;;10289458;28;20566;-90
2022/11/15 06:47:05;;;;;;;103.93;41.53;;;3.60;99.90;;;;;;10275610;28;20237;-90
2022/11/15 06:52:26;;;;;;;102.13;41.60;;;3.60;99.90;;;;;;10267467;28;20695;-90
2022/11/15 06:57:49;;;;;;;85.90;34.87;;;3.70;99.90;;;;;;10261109;28;20214;-94
2022/11/15 07:03:10;;;;;;;81.40;37.07;;;4.40;99.90;;;;;;10259717;28;20207;-94
2022/11/15 07:08:31;;;;;;;108.10;44.43;;;3.70;99.90;;;;;;10258833;29;20202;-94
2022/11/15 07:13:52;;;;;;;88.63;34.73;;;;;;;;;;10256333;29;20221;-92
2022/11/15 07:19:14;;;;;;;74.37;35.40;;;4.40;99.90;;;;;;10240478;28;20207;-92
2022/11/15 07:24:34;;;;;;;80.97;38.13;;;3.80;99.90;;;;;;10232880;28;20227;-92
2022/11/15 07:29:56;;;;;;;86.57;38.30;;;3.80;99.90;;;;;;10253981;28;20222;-92
2022/11/15 07:35:17;;;;;;;78.13;35.57;;;3.80;99.90;;;;;;10262376;28;20206;-93
2022/11/15 07:40:38;;;;;;;83.40;33.03;;;3.80;99.90;;;;;;10255145;29;20201;-93
2022/11/15 07:46:09;;;;;;;69.30;34.43;;;3.80;99.90;;;;;;10253345;29;20722;-93
2022/11/15 07:51:30;;;;;;;70.43;35.37;;;3.80;99.90;;;;;;10260072;28;20209;-93
2022/11/15 07:56:51;;;;;;;81.00;34.63;;;3.90;99.90;;;;;;10253981;29;20209;-92
2022/11/15 08:02:12;;;;;;;92.23;37.03;;;3.80;99.90;;;;;;10254400;29;20221;-93
2022/11/15 08:07:34;;;;;;;86.90;35.00;;;3.90;99.90;;;;;;10261580;28;20230;-93
2022/11/15 08:13:08;;;;;;;85.20;34.10;;;3.90;99.90;;;;;;10251486;29;20790;-93
2022/11/15 08:18:30;;;;;;;97.83;40.47;;;3.80;99.90;;;;;;10256704;28;20205;-93
2022/11/15 08:23:51;;;;;;;86.23;35.37;;;4.00;99.90;;;;;;10266277;28;20214;-93
2022/11/15 08:29:12;;;;;;;73.00;37.93;;;4.00;99.90;;;;;;10257233;29;20229;-93
2022/11/15 08:34:35;;;;;;;81.97;39.70;;;4.00;99.90;;;;;;10267316;28;20210;-93
2022/11/15 08:39:56;;;;;;;642.57;363.23;;;4.10;99.90;;;;;;10260925;28;20202;-92
2022/11/15 08:45:20;;;;;;;108.07;59.00;;;4.20;99.90;;;;;;10264899;28;20279;-92
2022/11/15 08:50:43;;;;;;;108.20;46.07;;;4.10;99.90;;;;;;10261909;29;20213;-93
2022/11/15 08:56:11;;;;;;;78.27;37.77;;;4.10;99.90;;;;;;10269242;28;20218;-93
2022/11/15 09:01:32;;;;;;;78.17;38.40;;;4.40;99.90;;;;;;10296370;28;20194;-93
2022/11/15 09:06:54;;;;;;;93.97;40.47;;;4.30;99.90;;;;;;10294611;28;20210;-93
2022/11/15 09:12:15;;;;;;;76.43;38.27;;;4.50;99.90;;;;;;10301872;28;20182;-92
2022/11/15 09:17:36;;;;;;;75.93;37.80;;;4.40;99.90;;;;;;10302724;28;20194;-93
2022/11/15 09:23:01;;;;;;;78.87;40.37;;;4.50;99.90;;;;;;10301596;28;20470;-93
2022/11/15 09:28:22;;;;;;;75.03;39.77;;;4.50;99.90;;;;;;10287475;28;20223;-93
2022/11/15 09:33:44;;;;;;;77.67;39.60;;;4.60;99.90;;;;;;10260616;29;20222;-92
2022/11/15 09:39:11;;;;;;;76.43;38.07;;;4.40;99.90;;;;;;10256795;29;20183;-93
2022/11/15 09:44:42;;;;;;;81.10;40.33;;;4.70;99.90;;;;;;10268052;28;20215;-93
2022/11/15 09:50:10;;;;;;;86.57;38.77;;;4.70;99.90;;;;;;10277566;28;20183;-92
2022/11/15 09:55:21;;;;;;;81.60;41.37;;;4.80;99.90;;;;;;10267020;28;20231;-92
2022/11/15 10:00:36;;;;;;;86.07;42.53;;;4.90;99.90;;;;;;10265075;29;20191;-92
2022/11/15 10:05:51;;;;;;;78.60;40.60;;;4.90;99.90;;;;;;10294555;28;20242;-93
2022/11/15 10:11:10;;;;;;;85.00;41.83;;;5.00;99.90;;;;;;10267102;29;20180;-93
2022/11/15 10:17:06;;;;;;;82.00;41.73;;;5.00;99.90;;;;;;10234978;29;20192;-93
2022/11/15 10:22:30;;;;;;;99.43;43.33;;;5.10;99.90;;;;;;10243692;28;20200;-93
2022/11/15 10:27:33;;;;;;;86.17;43.00;;;4.90;99.90;;;;;;10246844;28;20251;-93
2022/11/15 10:32:36;;;;;;;94.23;42.33;;;5.10;99.90;;;;;;10267406;29;20210;-93
2022/11/15 10:37:39;;;;;;;85.30;42.97;;;5.10;99.90;;;;;;10268347;29;20215;-93
2022/11/15 10:42:42;;;;;;;92.37;44.30;;;5.20;99.90;;;;;;10267393;29;20183;-94
2022/11/15 10:47:45;;;;;;;98.50;48.73;;;5.20;99.90;;;;;;10286575;28;20291;-92
2022/11/15 10:52:48;;;;;;;95.03;46.73;;;5.30;99.90;;;;;;10266720;28;20211;-93
2022/11/15 10:58:00;;;;;;;87.93;45.60;;;5.50;99.90;;;;;;10266671;28;20187;-93
2022/11/15 11:03:06;;;;;;;91.00;46.53;;;5.40;99.90;;;;;;10267437;29;20207;-93
2022/11/15 11:08:15;;;;;;;95.23;47.50;;;5.60;99.90;;;;;;10252712;29;20215;-93
2022/11/15 11:13:24;;;;;;;100.10;48.90;;;5.50;99.90;;;;;;10243813;28;20215;-94
2022/11/15 11:18:38;;;;;;;107.40;50.50;;;5.70;99.90;;;;;;10242167;28;20207;-93
2022/11/15 11:23:47;;;;;;;107.87;48.20;;;5.60;99.90;;;;;;10233822;29;20680;-94
2022/11/15 11:29:14;;;;;;;112.50;50.13;;;5.60;99.90;;;;;;10212663;29;20239;-93
2022/11/15 11:34:43;;;;;;;112.27;47.10;;;5.40;99.90;;;;;;10227591;29;20211;-93
2022/11/15 11:40:32;;;;;;;111.23;47.03;;;5.50;99.90;;;;;;10189158;29;20259;-92
2022/11/15 11:45:43;;;;;;;98.73;46.27;;;5.50;99.90;;;;;;10187106;29;20219;-93
2022/11/15 11:50:49;;;;;;;89.00;42.93;;;5.50;99.90;;;;;;10202321;29;20239;-93
2022/11/15 11:55:56;;;;;;;88.57;45.03;;;5.50;99.90;;;;;;10186180;29;20263;-93
2022/11/15 12:01:21;;;;;;;108.83;47.67;;;5.60;99.90;;;;;;10204435;29;20207;-93
2022/11/15 12:06:32;;;;;;;103.60;47.83;;;5.60;99.90;;;;;;10209200;29;20270;-93
2022/11/15 12:11:56;;;;;;;122.07;52.47;;;5.70;99.90;;;;;;10223304;29;20191;-93
2022/11/15 12:17:00;;;;;;;105.67;50.53;;;5.60;99.90;;;;;;10229408;29;20700;-94
2022/11/15 12:22:43;;;;;;;128.53;58.23;;;5.60;99.90;;;;;;10208739;29;20261;-93
2022/11/15 12:28:00;;;;;;;108.60;51.83;;;5.80;99.90;;;;;;10213662;29;20277;-92
2022/11/15 12:33:03;;;;;;;103.23;46.97;;;5.70;99.90;;;;;;10219128;29;20231;-92
2022/11/15 12:38:30;;;;;;;127.53;51.17;;;5.50;99.90;;;;;;10219625;29;20203;-93
2022/11/15 12:43:42;;;;;;;93.73;47.30;;;5.50;99.90;;;;;;10169445;29;20232;-92
2022/11/15 12:48:51;;;;;;;88.77;46.13;;;5.60;99.90;;;;;;10204302;29;20223;-93
2022/11/15 12:53:54;;;;;;;88.53;44.77;;;5.70;99.90;;;;;;10213331;29;20223;-93
2022/11/15 12:58:59;;;;;;;108.67;48.23;;;5.70;99.90;;;;;;10211915;29;20258;-92
2022/11/15 13:04:14;;;;;;;106.53;49.20;;;5.90;99.90;;;;;;10212198;29;20261;-93
2022/11/15 13:09:31;;;;;;;112.00;49.27;;;5.80;99.90;;;;;;10211959;29;20282;-92
2022/11/15 13:14:37;;;;;;;93.20;48.30;;;5.80;99.90;;;;;;10213332;29;20243;-94
2022/11/15 13:19:39;;;;;;;104.47;47.60;;;6.10;99.90;;;;;;10213502;29;20203;-94
2022/11/15 13:24:42;;;;;;;95.53;43.83;;;5.80;99.90;;;;;;10218825;29;20266;-93
2022/11/15 13:29:44;;;;;;;83.27;43.70;;;5.90;99.90;;;;;;10220372;29;20226;-93
2022/11/15 13:34:52;;;;;;;91.17;42.60;;;5.70;99.90;;;;;;10218302;29;20210;-93
2022/11/15 13:40:09;;;;;;;87.87;42.53;;;5.50;99.90;;;;;;10219367;29;20214;-93
2022/11/15 13:45:17;;;;;;;79.50;39.53;;;5.60;99.90;;;;;;10219097;29;20226;-94
2022/11/15 13:50:22;;;;;;;79.07;38.90;;;5.70;99.90;;;;;;10220544;29;20246;-93
2022/11/15 13:55:25;;;;;;;87.00;40.00;;;5.70;99.90;;;;;;10202104;29;20271;-93
2022/11/15 14:00:43;;;;;;;89.57;41.77;;;5.80;99.90;;;;;;10203079;29;20751;-94
2022/11/15 14:06:11;;;;;;;73.83;37.20;;;5.70;99.90;;;;;;10194816;29;20226;-93
2022/11/15 14:11:19;;;;;;;82.93;40.07;;;5.60;99.90;;;;;;10217627;29;20731;-93
2022/11/15 14:16:42;;;;;;;103.73;47.83;;;5.70;99.90;;;;;;10216027;29;20211;-94
2022/11/15 14:22:20;;;;;;;89.00;43.50;;;5.60;99.90;;;;;;10212826;29;20269;-93
2022/11/15 14:27:22;;;;;;;92.43;42.03;;;5.50;99.90;;;;;;10226252;29;20254;-94
2022/11/15 14:32:28;;;;;;;88.73;44.90;;;5.60;99.90;;;;;;10212948;29;20262;-93
2022/11/15 14:37:34;;;;;;;96.07;42.20;;;5.60;99.90;;;;;;10211648;29;20668;-93
2022/11/15 14:42:37;;;;;;;87.23;41.77;;;5.70;99.90;;;;;;10211755;29;20243;-93
2022/11/15 14:47:39;;;;;;;80.50;41.83;;;5.60;99.90;;;;;;10212348;29;20763;-94
2022/11/15 14:52:43;;;;;;;81.83;42.13;;;5.70;99.90;;;;;;10205170;29;20222;-94
2022/11/15 14:57:45;;;;;;;86.60;43.10;;;5.60;99.90;;;;;;10211001;29;20238;-92
2022/11/15 15:02:50;;;;;;;93.00;41.67;;;5.60;99.90;;;;;;10206553;29;20300;-92
2022/11/15 15:07:52;;;;;;;87.50;40.87;;;5.60;99.90;;;;;;10209278;29;20258;-94
2022/11/15 15:12:55;;;;;;;98.57;45.90;;;6.50;99.90;;;;;;10209364;29;20238;-94
2022/11/15 15:17:58;;;;;;;101.07;42.60;;;5.90;99.90;;;;;;10210458;29;20219;-94
2022/11/15 15:23:00;;;;;;;92.87;41.67;;;6.00;99.90;;;;;;10211015;29;20207;-94
2022/11/15 15:28:03;;;;;;;102.30;42.73;;;6.10;99.90;;;;;;10209603;29;20250;-94
2022/11/15 15:33:06;;;;;;;100.03;44.80;;;6.10;99.90;;;;;;10211121;29;20258;-93
2022/11/15 15:38:12;;;;;;;82.70;40.10;;;6.00;99.90;;;;;;10213280;29;20211;-94
2022/11/15 15:43:14;;;;;;;85.60;40.77;;;6.40;99.90;;;;;;10216476;29;20211;-94
2022/11/15 15:48:17;;;;;;;91.77;40.70;;;6.10;99.90;;;;;;10217984;29;20263;-94
2022/11/15 15:53:19;;;;;;;81.10;40.33;;;5.90;99.90;;;;;;10210597;29;20203;-95
2022/11/15 15:58:22;;;;;;;84.50;39.43;;;6.40;99.90;;;;;;10198640;29;20235;-94
2022/11/15 16:03:25;;;;;;;86.37;43.23;;;6.10;99.90;;;;;;10203930;29;20238;-88
2022/11/15 16:08:29;;;;;;;86.73;44.17;;;6.80;99.90;;;;;;10205424;29;20306;-88
2022/11/15 16:13:43;;;;;;;80.57;38.80;;;6.30;99.90;;;;;;10206826;29;20230;-87
2022/11/15 16:18:46;;;;;;;105.47;47.20;;;6.50;99.90;;;;;;10207823;29;20243;-87
2022/11/15 16:23:48;;;;;;;109.67;46.00;;;6.00;99.90;;;;;;10206054;29;20211;-88
2022/11/15 16:28:51;;;;;;;79.10;39.50;;;6.00;99.90;;;;;;10207929;29;20751;-88
2022/11/15 16:33:53;;;;;;;92.93;42.97;;;5.90;99.90;;;;;;10208261;29;20644;-88
2022/11/15 16:38:57;;;;;;;80.50;41.83;;;5.80;99.90;;;;;;10209557;29;20254;-87
2022/11/15 16:43:59;;;;;;;83.57;42.37;;;6.10;99.90;;;;;;10208356;29;20234;-88
2022/11/15 16:49:02;;;;;;;81.70;38.43;;;6.00;99.90;;;;;;10205973;29;20742;-88
2022/11/15 16:54:04;;;;;;;72.00;39.97;;;6.30;99.90;;;;;;10181157;29;20235;-88
2022/11/15 16:59:17;;;;;;;76.63;40.00;;;6.20;99.90;;;;;;10215494;29;20214;-88
2022/11/15 17:04:21;;;;;;;70.30;37.77;;;6.90;99.90;;;;;;10215755;29;20242;-88
2022/11/15 17:09:24;;;;;;;76.97;39.40;;;6.00;99.90;;;;;;9874144;28;9999671;-88
2022/11/15 17:14:26;;;;;;;104.47;51.93;;;5.70;99.90;;;;;;10205214;29;20239;-88
2022/11/15 17:19:29;;;;;;;80.03;43.57;;;5.60;99.90;;;;;;10176202;29;20238;-87
2022/11/15 17:24:31;;;;;;;80.93;43.40;;;6.20;99.90;;;;;;10211755;29;20258;-87
2022/11/15 17:29:34;;;;;;;86.63;46.97;;;5.70;99.90;;;;;;10187577;29;20275;-87
2022/11/15 17:34:36;;;;;;;96.73;46.73;;;5.50;99.90;;;;;;10194989;29;20246;-87
2022/11/15 17:39:39;;;;;;;76.23;39.70;;;5.40;99.90;;;;;;10171686;29;20243;-87
2022/11/15 17:44:41;;;;;;;77.83;39.33;;;5.50;99.90;;;;;;10196446;29;20243;-87
2022/11/15 17:49:44;;;;;;;71.10;39.60;;;5.60;99.90;;;;;;10188870;29;20258;-87
2022/11/15 17:54:47;;;;;;;83.97;43.00;;;5.60;99.90;;;;;;10211006;29;20234;-87
2022/11/15 17:59:49;;;;;;;84.00;38.90;;;5.50;99.90;;;;;;10206147;29;20278;-87
2022/11/15 18:04:52;;;;;;;77.73;38.83;;;5.40;99.90;;;;;;10209303;29;20258;-87
2022/11/15 18:09:55;;;;;;;74.83;36.63;;;5.60;99.90;;;;;;10211121;29;20262;-87
2022/11/15 18:14:58;;;;;;;72.47;36.27;;;5.40;99.90;;;;;;10209086;29;20752;-87
2022/11/15 18:20:01;;;;;;;99.77;44.73;;;7.30;99.90;;;;;;10224894;28;20293;-88
2022/11/15 18:25:04;;;;;;;82.87;39.03;;;5.80;99.90;;;;;;10213147;29;20242;-87
2022/11/15 18:30:08;;;;;;;91.83;43.37;;;5.60;99.90;;;;;;10204898;29;20262;-87
2022/11/15 18:35:11;;;;;;;90.67;40.20;;;5.60;99.90;;;;;;10212559;29;20617;-87
2022/11/15 18:40:13;;;;;;;73.60;35.57;;;5.80;99.90;;;;;;10210892;29;20274;-87
2022/11/15 18:45:16;;;;;;;86.17;36.43;;;5.80;99.90;;;;;;10208857;29;20238;-87
2022/11/15 18:50:25;;;;;;;91.77;38.10;;;6.50;99.90;;;;;;10208272;29;20263;-87
2022/11/15 18:55:27;;;;;;;75.20;36.07;;;6.20;99.90;;;;;;10206633;29;20372;-88
2022/11/15 19:00:30;;;;;;;68.47;32.90;;;6.20;99.90;;;;;;10220939;29;20243;-87
2022/11/15 19:05:34;;;;;;;73.63;33.47;;;6.40;99.90;;;;;;10210989;29;20234;-88
2022/11/15 19:10:36;;;;;;;72.87;35.43;;;6.40;99.90;;;;;;10187653;29;20255;-89
2022/11/15 19:15:39;;;;;;;61.13;30.87;;;8.40;99.90;;;;;;10208630;29;20294;-88
2022/11/15 19:20:41;;;;;;;59.97;31.90;;;9.10;99.90;;;;;;10208282;29;20226;-88
2022/11/15 19:25:53;;;;;;;55.70;30.03;;;7.60;99.90;;;;;;10205197;29;20273;-88
2022/11/15 19:31:07;;;;;;;55.90;31.23;;;9.50;99.90;;;;;;10218135;29;20927;-87
2022/11/15 19:36:15;;;;;;;54.47;29.43;;;9.80;99.90;;;;;;10216435;29;20207;-88
2022/11/15 19:41:19;;;;;;;57.20;31.00;;;8.60;99.90;;;;;;10210673;29;20733;-87
2022/11/15 19:46:23;;;;;;;60.27;28.93;;;8.00;99.90;;;;;;10213099;29;20227;-88
2022/11/15 19:51:28;;;;;;;61.50;30.90;;;7.10;99.90;;;;;;10201308;29;20285;-88
2022/11/15 19:56:32;;;;;;;63.03;29.80;;;6.50;99.90;;;;;;10203614;29;21032;-88
2022/11/15 20:01:36;;;;;;;59.10;28.60;;;6.70;99.90;;;;;;10200296;29;20242;-88
2022/11/15 20:06:41;;;;;;;60.60;30.60;;;6.70;99.90;;;;;;10208135;29;20638;-88
2022/11/15 20:11:44;;;;;;;65.37;32.00;;;6.70;99.90;;;;;;10207010;29;21567;-88
2022/11/15 20:16:51;;;;;;;74.67;33.93;;;6.50;99.90;;;;;;10184176;29;20239;-88
2022/11/15 20:21:55;;;;;;;85.47;35.77;;;6.30;99.90;;;;;;10201607;29;20718;-88
2022/11/15 20:26:58;;;;;;;86.43;39.13;;;6.20;99.90;;;;;;10208143;29;20282;-89
2022/11/15 20:32:01;;;;;;;76.87;36.13;;;5.90;99.90;;;;;;10208011;29;20262;-88
2022/11/15 20:37:03;;;;;;;79.27;34.53;;;6.30;99.90;;;;;;10207101;29;20311;-88
2022/11/15 20:42:07;;;;;;;71.40;33.67;;;7.80;99.90;;;;;;10200446;29;20267;-88
2022/11/15 20:47:09;;;;;;;77.80;33.40;;;9.00;99.90;;;;;;10197952;29;20262;-88
2022/11/15 20:52:12;;;;;;;76.27;34.30;;;9.00;99.90;;;;;;10202346;29;20607;-88
2022/11/15 20:57:14;;;;;;;75.30;35.30;;;6.80;99.90;;;;;;10199758;29;20284;-88
2022/11/15 21:02:17;;;;;;;75.73;36.07;;;6.80;99.90;;;;;;10207444;29;20282;-88
2022/11/15 21:07:19;;;;;;;74.87;35.27;;;8.10;99.90;;;;;;10213965;29;20320;-87
2022/11/15 21:12:22;;;;;;;70.67;35.70;;;9.10;99.90;;;;;;10204278;29;20283;-88
2022/11/15 21:17:24;;;;;;;80.53;38.40;;;8.90;99.90;;;;;;10206298;29;20681;-88
2022/11/15 21:22:27;;;;;;;91.57;39.03;;;7.80;99.90;;;;;;10198724;29;20310;-88
2022/11/15 21:27:30;;;;;;;72.67;34.13;;;6.20;99.90;;;;;;10206097;29;20274;-87
2022/11/15 21:32:32;;;;;;;68.90;32.80;;;8.30;99.90;;;;;;10204847;29;20723;-88
2022/11/15 21:37:35;;;;;;;56.10;30.50;;;10.20;99.90;;;;;;10205834;29;20242;-88
2022/11/15 21:42:37;;;;;;;62.93;30.73;;;10.80;99.90;;;;;;10207027;29;20242;-88
2022/11/15 21:47:40;;;;;;;60.10;29.87;;;11.20;99.90;;;;;;10211521;29;20329;-89
2022/11/15 21:52:47;;;;;;;66.33;33.23;;;9.30;99.90;;;;;;10213332;29;20706;-88
2022/11/15 21:57:50;;;;;;;66.03;30.80;;;8.50;99.90;;;;;;10214260;29;20731;-88
2022/11/15 22:02:52;;;;;;;67.70;33.13;;;9.40;99.90;;;;;;10214605;29;20258;-88
2022/11/15 22:07:54;;;;;;;52.73;27.20;;;8.20;99.90;;;;;;10210485;29;20364;-88
2022/11/15 22:12:57;;;;;;;55.83;27.87;;;10.00;99.90;;;;;;10212882;29;20239;-88
2022/11/15 22:17:59;;;;;;;52.73;29.73;;;9.70;99.90;;;;;;10210800;29;20294;-89
2022/11/15 22:23:02;;;;;;;56.30;30.57;;;9.60;99.90;;;;;;10211826;29;20211;-88
2022/11/15 22:28:04;;;;;;;59.97;31.20;;;8.60;99.90;;;;;;10210428;29;20247;-88
2022/11/15 22:33:07;;;;;;;55.17;28.97;;;7.50;99.90;;;;;;10189113;29;20338;-88
2022/11/15 22:38:09;;;;;;;58.60;28.37;;;8.50;99.90;;;;;;10193225;29;20242;-88
2022/11/15 22:43:14;;;;;;;59.17;29.50;;;9.50;99.90;;;;;;10212238;29;20240;-88
2022/11/15 22:48:23;;;;;;;52.87;28.40;;;9.00;99.90;;;;;;10211879;29;20286;-88
2022/11/15 22:53:27;;;;;;;56.63;26.60;;;;;;;;;;10210076;29;20239;-88
2022/11/15 22:58:31;;;;;;;52.30;26.50;;;10.50;99.90;;;;;;10208497;29;20223;-88
2022/11/15 23:03:34;;;;;;;51.83;26.33;;;9.30;99.90;;;;;;10209758;29;20286;-88
2022/11/15 23:08:37;;;;;;;47.50;25.07;;;8.30;99.90;;;;;;10209271;29;20263;-87
2022/11/15 23:13:40;;;;;;;51.37;26.33;;;8.70;99.90;;;;;;10210286;29;20226;-87
2022/11/15 23:18:42;;;;;;;46.93;26.80;;;8.80;99.90;;;;;;10210297;29;20242;-88
2022/11/15 23:23:45;;;;;;;47.70;25.20;;;9.10;99.90;;;;;;10210926;29;20254;-87
2022/11/15 23:28:47;;;;;;;48.97;23.27;;;11.80;99.90;;;;;;10209929;29;20267;-88
2022/11/15 23:33:58;;;;;;;51.27;28.43;;;9.20;99.90;;;;;;10209561;29;20239;-87
2022/11/15 23:39:02;;;;;;;55.60;25.97;;;10.70;99.90;;;;;;10208728;29;20238;-87
2022/11/15 23:44:04;;;;;;;52.43;27.60;;;12.30;99.90;;;;;;10209535;29;20303;-87
2022/11/15 23:49:07;;;;;;;47.07;24.77;;;10.90;99.90;;;;;;10209587;29;20256;-88
2022/11/15 23:54:10;;;;;;;45.90;22.80;;;10.00;99.90;;;;;;10210252;29;20227;-88
2022/11/15 23:59:13;;;;;;;50.83;23.80;;;9.10;99.90;;;;;;10207653;29;20234;-87
